Time;durP1;ratioP1;P1;durP2;ratioP2;P2;SDS_P1;SDS_P2;PMS_P1;PMS_P2;Temp;Humidity;BMP_temperature;BMP_pressure;BME280_temperature;BME280_humidity;BME280_pressure;Samples;Min_cycle;Max_cycle;Signal;HPM_P1;HPM_P2
2021/10/21 00:01:10;;;;;;;;;;;;;;;0.61;77.29;102607.38;1830712;78;20161;-61
2021/10/21 00:03:38;;;;;;;;;;;;;;;0.61;77.10;102608.67;1830657;78;20120;-61
2021/10/21 00:06:06;;;;;;;;;;;;;;;0.60;76.84;102604.31;1830736;78;20152;-61
2021/10/21 00:08:34;;;;;;;;;;;;;;;0.58;77.21;102602.09;1830619;78;20112;-60
2021/10/21 00:11:02;;;;;;;;;;;;;;;0.57;77.44;102599.02;1830727;78;20120;-61
2021/10/21 00:13:30;;;;;;;;;;;;;;;0.58;77.44;102595.60;1830651;78;20115;-60
2021/10/21 00:15:58;;;;;;;;;;;;;;;0.56;77.43;102593.38;1830835;78;20146;-60
2021/10/21 00:18:26;;;;;;;;;;;;;;;0.54;77.33;102593.75;1830749;78;20180;-60
2021/10/21 00:20:53;;;;;;;;;;;;;;;0.50;77.29;102587.59;1830627;78;20124;-60
2021/10/21 00:23:22;;;;;;;;;;;;;;;0.46;77.28;102590.92;1830698;78;20198;-60
2021/10/21 00:25:49;;;;;;;;;;;;;;;0.44;77.03;102586.50;1830735;78;20160;-61
2021/10/21 00:28:17;;;;;;;;;;;;;;;0.42;77.19;102573.48;1830726;78;20120;-60
2021/10/21 00:30:45;;;;;;;;;;;;;;;0.40;77.13;102578.17;1830705;78;20205;-60
2021/10/21 00:33:13;;;;;;;;;;;;;;;0.37;77.26;102573.35;1830717;78;20155;-60
2021/10/21 00:35:41;;;;;;;;;;;;;;;0.37;77.12;102572.48;1830918;78;20119;-61
2021/10/21 00:38:09;;;;;;;;;;;;;;;0.34;77.39;102568.06;1831022;78;20425;-60
2021/10/21 00:40:37;;;;;;;;;;;;;;;0.34;77.20;102565.47;1830941;78;20391;-60
2021/10/21 00:43:05;;;;;;;;;;;;;;;0.34;77.08;102574.54;1830989;78;20120;-60
2021/10/21 00:45:33;;;;;;;;;;;;;;;0.32;77.17;102577.50;1831037;78;20205;-60
2021/10/21 00:48:00;;;;;;;;;;;;;;;0.33;77.59;102569.30;1831051;78;20120;-61
2021/10/21 00:50:28;;;;;;;;;;;;;;;0.30;77.93;102572.69;1831111;78;20207;-60
2021/10/21 00:52:56;;;;;;;;;;;;;;;0.31;77.57;102566.66;1831157;78;20116;-60
2021/10/21 00:55:24;;;;;;;;;;;;;;;0.32;77.51;102568.42;1831144;78;20116;-60
2021/10/21 00:57:52;;;;;;;;;;;;;;;0.32;77.73;102572.31;1831099;78;20120;-60
2021/10/21 01:00:20;;;;;;;;;;;;;;;0.31;77.95;102570.54;1831130;78;20162;-60
2021/10/21 01:02:48;;;;;;;;;;;;;;;0.31;78.45;102571.83;1831027;78;20119;-60
2021/10/21 01:05:16;;;;;;;;;;;;;;;0.29;78.49;102570.91;1831138;78;20155;-60
2021/10/21 01:07:44;;;;;;;;;;;;;;;0.29;78.18;102571.33;1831077;78;20124;-60
2021/10/21 01:10:12;;;;;;;;;;;;;;;0.30;78.00;102572.69;1831110;78;20124;-61
2021/10/21 01:12:40;;;;;;;;;;;;;;;0.30;78.22;102562.32;1831126;78;20108;-61
2021/10/21 01:15:15;;;;;;;;;;;;;;;0.35;78.27;102566.34;1831089;78;20128;-61
2021/10/21 01:17:43;;;;;;;;;;;;;;;0.37;78.24;102562.98;1831312;77;20182;-61
2021/10/21 01:20:16;;;;;;;;;;;;;;;0.37;78.69;102571.19;1831225;78;20116;-60
2021/10/21 01:22:41;;;;;;;;;;;;;;;0.37;78.84;102564.28;1831008;77;20112;-61
2021/10/21 01:25:09;;;;;;;;;;;;;;;0.37;78.73;102569.47;1831094;78;20120;-60
2021/10/21 01:27:37;;;;;;;;;;;;;;;0.38;78.68;102572.50;1831114;78;20147;-60
2021/10/21 01:30:05;;;;;;;;;;;;;;;0.38;78.82;102571.20;1831068;78;20211;-61
2021/10/21 01:32:36;;;;;;;;;;;;;;;0.35;78.79;102572.42;1831142;78;20116;-60
2021/10/21 01:35:04;;;;;;;;;;;;;;;0.34;78.78;102570.66;1845033;77;20423;-60
2021/10/21 01:37:32;;;;;;;;;;;;;;;0.33;78.95;102580.57;1851962;77;20139;-60
2021/10/21 01:40:00;;;;;;;;;;;;;;;0.32;78.95;102577.50;1851998;77;20393;-60
2021/10/21 01:42:28;;;;;;;;;;;;;;;0.33;78.64;102575.78;1851797;76;20115;-60
2021/10/21 01:44:56;;;;;;;;;;;;;;;0.31;78.96;102575.72;1851933;77;20111;-60
2021/10/21 01:47:24;;;;;;;;;;;;;;;0.26;79.16;102581.59;1851956;77;20122;-60
2021/10/21 01:49:52;;;;;;;;;;;;;;;0.20;79.23;102588.74;1851994;77;20123;-60
2021/10/21 01:52:20;;;;;;;;;;;;;;;0.16;79.35;102590.77;1851930;77;20118;-60
2021/10/21 01:54:48;;;;;;;;;;;;;;;0.17;79.49;102586.08;1851916;77;20110;-61
2021/10/21 01:57:15;;;;;;;;;;;;;;;0.20;79.42;102587.45;1851824;77;20189;-60
2021/10/21 01:59:43;;;;;;;;;;;;;;;0.21;79.35;102585.34;1851914;77;20210;-60
2021/10/21 02:02:11;;;;;;;;;;;;;;;0.24;79.08;102585.45;1851905;77;20145;-60
2021/10/21 02:04:39;;;;;;;;;;;;;;;0.28;78.87;102582.13;1851949;77;20150;-60
2021/10/21 02:07:07;;;;;;;;;;;;;;;0.26;79.08;102587.67;1851940;77;20150;-61
2021/10/21 02:09:34;;;;;;;;;;;;;;;0.24;79.24;102591.92;1851799;77;20127;-60
2021/10/21 02:12:02;;;;;;;;;;;;;;;0.22;79.25;102584.48;1851928;77;20115;-60
2021/10/21 02:17:22;;;;;;;;;;;;;;;0.23;79.31;102587.56;1834788;78;20127;-60
2021/10/21 02:19:49;;;;;;;;;;;;;;;0.27;79.05;102585.53;1877395;74;20121;-61
2021/10/21 02:22:17;;;;;;;;;;;;;;;0.30;78.69;102584.34;1880339;76;20120;-60
2021/10/21 02:24:44;;;;;;;;;;;;;;;0.34;78.43;102583.61;1880402;76;20147;-60
2021/10/21 02:27:12;;;;;;;;;;;;;;;0.38;78.20;102580.70;1880323;76;20160;-60
2021/10/21 02:29:40;;;;;;;;;;;;;;;0.39;77.97;102578.59;1880381;76;20113;-61
2021/10/21 02:32:08;;;;;;;;;;;;;;;0.41;77.81;102581.20;1880371;76;20121;-60
2021/10/21 02:34:35;;;;;;;;;;;;;;;0.43;77.62;102574.39;1880265;76;20147;-61
2021/10/21 02:37:03;;;;;;;;;;;;;;;0.45;77.50;102574.02;1880328;76;20164;-60
2021/10/21 02:39:31;;;;;;;;;;;;;;;0.46;77.36;102574.47;1880435;76;20117;-60
2021/10/21 02:41:59;;;;;;;;;;;;;;;0.43;77.64;102568.78;1880355;76;20387;-61
2021/10/21 02:44:27;;;;;;;;;;;;;;;0.43;77.80;102573.09;1880383;76;20121;-60
2021/10/21 02:46:55;;;;;;;;;;;;;;;0.43;77.88;102574.39;1880321;76;20117;-62
2021/10/21 02:49:22;;;;;;;;;;;;;;;0.42;77.95;102568.73;1880297;76;20191;-60
2021/10/21 02:51:50;;;;;;;;;;;;;;;0.42;77.73;102572.61;1880353;76;20117;-60
2021/10/21 02:54:18;;;;;;;;;;;;;;;0.41;77.62;102583.41;1880358;76;20151;-60
2021/10/21 02:56:46;;;;;;;;;;;;;;;0.41;77.52;102576.92;1880350;76;20101;-60
2021/10/21 02:59:14;;;;;;;;;;;;;;;0.40;78.01;102567.80;1880359;76;20125;-61
2021/10/21 03:01:41;;;;;;;;;;;;;;;0.32;78.55;102564.54;1880222;76;20121;-61
2021/10/21 03:04:09;;;;;;;;;;;;;;;0.29;78.70;102560.55;1880335;76;20117;-60
2021/10/21 03:06:37;;;;;;;;;;;;;;;0.26;79.16;102550.50;1880344;76;20147;-60
2021/10/21 03:09:05;;;;;;;;;;;;;;;0.25;79.17;102551.34;1880311;76;20129;-60
2021/10/21 03:11:32;;;;;;;;;;;;;;;0.20;79.67;102549.88;1880328;76;20210;-60
2021/10/21 03:14:00;;;;;;;;;;;;;;;0.18;79.98;102548.95;1880319;76;20120;-60
2021/10/21 03:16:34;;;;;;;;;;;;;;;0.18;79.95;102539.89;1880247;76;20191;-60
2021/10/21 03:18:57;;;;;;;;;;;;;;;0.22;79.91;102549.52;1880572;75;20125;-60
2021/10/21 03:21:25;;;;;;;;;;;;;;;0.23;80.07;102538.33;1880334;76;20121;-60
2021/10/21 03:23:53;;;;;;;;;;;;;;;0.24;80.06;102540.11;1880364;76;20164;-60
2021/10/21 03:26:21;;;;;;;;;;;;;;;0.25;79.99;102548.75;1880340;76;20104;-59
2021/10/21 03:28:48;;;;;;;;;;;;;;;0.24;79.98;102547.88;1880190;76;20120;-60
2021/10/21 03:31:16;;;;;;;;;;;;;;;0.22;80.16;102554.69;1880437;76;20113;-60
2021/10/21 03:33:45;;;;;;;;;;;;;;;0.19;79.84;102559.80;1880342;76;20152;-59
2021/10/21 03:36:12;;;;;;;;;;;;;;;0.16;79.67;102558.39;1880343;76;20146;-59
2021/10/21 03:38:40;;;;;;;;;;;;;;;0.17;79.99;102558.45;1880312;76;20158;-59
2021/10/21 03:41:08;;;;;;;;;;;;;;;0.19;80.16;102552.02;1880249;76;20124;-60
2021/10/21 03:43:36;;;;;;;;;;;;;;;0.19;80.31;102559.37;1880362;76;20188;-59
2021/10/21 03:46:04;;;;;;;;;;;;;;;0.21;80.67;102546.90;1880318;76;20147;-61
2021/10/21 03:48:32;;;;;;;;;;;;;;;0.23;80.77;102550.42;1880326;76;20109;-59
2021/10/21 03:50:59;;;;;;;;;;;;;;;0.25;80.57;102540.55;1880253;76;20117;-59
2021/10/21 03:53:27;;;;;;;;;;;;;;;0.27;80.20;102542.77;1880294;76;20117;-59
2021/10/21 03:55:55;;;;;;;;;;;;;;;0.26;80.38;102536.24;1880218;76;20117;-59
2021/10/21 03:58:23;;;;;;;;;;;;;;;0.28;80.53;102532.89;1880324;76;20168;-60
2021/10/21 04:00:51;;;;;;;;;;;;;;;0.28;80.82;102531.59;1880331;76;20104;-59
2021/10/21 04:03:19;;;;;;;;;;;;;;;0.28;80.86;102534.19;1880379;76;20113;-59
2021/10/21 04:05:46;;;;;;;;;;;;;;;0.31;80.82;102528.21;1880298;76;20120;-60
2021/10/21 04:08:14;;;;;;;;;;;;;;;0.34;80.79;102529.19;1880283;76;20113;-60
2021/10/21 04:10:42;;;;;;;;;;;;;;;0.41;80.61;102526.78;1880275;76;20168;-60
2021/10/21 04:13:11;;;;;;;;;;;;;;;0.48;80.23;102532.23;1880237;76;20176;-60
2021/10/21 04:18:27;;;;;;;;;;;;;;;0.61;80.44;102528.70;1880166;76;20163;-60
2021/10/21 04:20:55;;;;;;;;;;;;;;;0.65;80.42;102531.87;1880145;76;20121;-59
2021/10/21 04:23:23;;;;;;;;;;;;;;;0.72;80.40;102521.73;1880273;76;20105;-60
2021/10/21 04:25:51;;;;;;;;;;;;;;;0.80;80.35;102530.16;1880333;76;20198;-60
2021/10/21 04:28:19;;;;;;;;;;;;;;;0.89;80.23;102539.52;1880356;76;20147;-60
2021/10/21 04:30:47;;;;;;;;;;;;;;;0.99;80.00;102536.34;1880323;76;20121;-60
2021/10/21 04:33:15;;;;;;;;;;;;;;;1.09;79.76;102534.48;1880483;76;20105;-61
2021/10/21 04:35:43;;;;;;;;;;;;;;;1.18;79.53;102527.78;1880326;76;20222;-60
2021/10/21 04:38:10;;;;;;;;;;;;;;;1.22;79.40;102520.55;1880286;76;20262;-60
2021/10/21 04:40:38;;;;;;;;;;;;;;;1.23;79.44;102524.91;1880334;76;20151;-60
2021/10/21 04:43:06;;;;;;;;;;;;;;;1.29;79.48;102515.59;1880323;76;20117;-60
2021/10/21 04:45:34;;;;;;;;;;;;;;;1.33;79.43;102522.63;1880311;76;20129;-60
2021/10/21 04:48:02;;;;;;;;;;;;;;;1.40;79.26;102521.05;1880206;76;20148;-59
2021/10/21 04:50:30;;;;;;;;;;;;;;;1.47;79.26;102524.28;1880275;76;20151;-60
2021/10/21 04:52:57;;;;;;;;;;;;;;;1.56;79.10;102526.68;1880324;76;20144;-60
2021/10/21 04:55:26;;;;;;;;;;;;;;;1.62;79.03;102526.41;1880317;76;20156;-60
2021/10/21 04:57:54;;;;;;;;;;;;;;;1.69;78.97;102519.67;1880287;76;20101;-60
2021/10/21 05:00:21;;;;;;;;;;;;;;;1.77;78.75;102520.77;1880247;76;20160;-61
2021/10/21 05:02:49;;;;;;;;;;;;;;;1.87;78.56;102523.17;1880233;76;20117;-60
2021/10/21 05:05:17;;;;;;;;;;;;;;;1.99;78.31;102525.19;1880272;76;20117;-60
2021/10/21 05:07:45;;;;;;;;;;;;;;;2.12;77.98;102519.44;1880266;76;20105;-60
2021/10/21 05:10:13;;;;;;;;;;;;;;;2.20;77.71;102521.83;1880290;76;20122;-60
2021/10/21 05:12:40;;;;;;;;;;;;;;;2.30;77.43;102522.48;1880331;76;20117;-59
2021/10/21 05:15:09;;;;;;;;;;;;;;;2.43;77.20;102517.58;1880213;76;20105;-60
2021/10/21 05:17:36;;;;;;;;;;;;;;;2.66;76.89;102512.48;1880209;75;20113;-60
2021/10/21 05:20:05;;;;;;;;;;;;;;;2.93;76.39;102507.41;1880280;76;20117;-60
2021/10/21 05:22:33;;;;;;;;;;;;;;;3.41;75.44;102505.34;1880237;76;20125;-60
2021/10/21 05:25:00;;;;;;;;;;;;;;;4.11;74.39;102505.23;1880299;76;20152;-59
2021/10/21 05:27:28;;;;;;;;;;;;;;;4.86;73.53;102498.49;1880278;76;20147;-60
2021/10/21 05:29:56;;;;;;;;;;;;;;;5.49;72.45;102497.03;1880244;76;20184;-60
2021/10/21 05:32:24;;;;;;;;;;;;;;;6.09;71.76;102505.02;1880277;76;20143;-59
2021/10/21 05:34:51;;;;;;;;;;;;;;;6.70;70.75;102504.99;1880289;76;20164;-60
2021/10/21 05:37:19;;;;;;;;;;;;;;;7.32;69.51;102504.78;1880291;76;20121;-60
2021/10/21 05:39:48;;;;;;;;;;;;;;;7.84;68.15;102497.02;1880304;76;20151;-60
2021/10/21 05:42:16;;;;;;;;;;;;;;;8.38;67.46;102493.48;1880318;76;20121;-60
2021/10/21 05:44:44;;;;;;;;;;;;;;;8.88;65.95;102489.88;1880270;76;20117;-60
2021/10/21 05:47:11;;;;;;;;;;;;;;;9.28;65.20;102493.18;1880290;76;20156;-60
2021/10/21 05:49:39;;;;;;;;;;;;;;;9.75;64.32;102481.91;1880291;75;20124;-61
2021/10/21 05:52:07;;;;;;;;;;;;;;;10.13;63.54;102487.30;1880261;76;20108;-59
2021/10/21 05:54:35;;;;;;;;;;;;;;;10.59;62.82;102482.05;1880238;76;20159;-61
2021/10/21 05:57:04;;;;;;;;;;;;;;;11.06;62.49;102478.39;1880250;76;20168;-59
2021/10/21 05:59:31;;;;;;;;;;;;;;;11.53;60.91;102478.17;1880258;76;20438;-60
2021/10/21 06:02:00;;;;;;;;;;;;;;;11.98;61.03;102462.05;1880260;76;20143;-60
2021/10/21 06:04:28;;;;;;;;;;;;;;;12.40;59.87;102459.12;1880268;76;20151;-60
2021/10/21 06:06:55;;;;;;;;;;;;;;;12.74;58.79;102454.91;1880294;76;20147;-60
2021/10/21 06:09:23;;;;;;;;;;;;;;;13.17;57.62;102453.53;1880205;76;20113;-60
2021/10/21 06:11:51;;;;;;;;;;;;;;;13.80;58.51;102455.59;1880242;76;20152;-60
2021/10/21 06:14:21;;;;;;;;;;;;;;;14.47;57.62;102440.13;1880232;76;20268;-60
2021/10/21 06:16:49;;;;;;;;;;;;;;;15.05;55.21;102445.08;1880265;76;20118;-60
2021/10/21 06:19:17;;;;;;;;;;;;;;;15.31;55.48;102440.74;1880404;76;20113;-60
2021/10/21 06:21:46;;;;;;;;;;;;;;;15.53;54.36;102444.02;1880216;76;20109;-60
2021/10/21 06:24:15;;;;;;;;;;;;;;;16.14;53.80;102437.98;1880375;76;20121;-60
2021/10/21 06:26:43;;;;;;;;;;;;;;;16.44;53.25;102435.14;1880349;76;20386;-60
2021/10/21 06:29:11;;;;;;;;;;;;;;;16.83;52.84;102434.59;1880312;76;20198;-60
2021/10/21 06:31:39;;;;;;;;;;;;;;;17.35;52.20;102436.55;1880273;76;20147;-60
2021/10/21 06:34:07;;;;;;;;;;;;;;;17.71;50.32;102438.61;1880293;76;20119;-59
2021/10/21 06:36:35;;;;;;;;;;;;;;;18.11;50.48;102420.94;1880299;76;20191;-60
2021/10/21 06:39:04;;;;;;;;;;;;;;;18.51;49.06;102416.94;1880241;76;20125;-59
2021/10/21 06:41:32;;;;;;;;;;;;;;;19.04;48.96;102416.24;1880225;76;20203;-60
2021/10/21 06:44:00;;;;;;;;;;;;;;;19.30;47.08;102412.78;1880160;76;20121;-60
2021/10/21 06:46:27;;;;;;;;;;;;;;;19.62;47.53;102409.84;1880260;76;20113;-60
2021/10/21 06:48:58;;;;;;;;;;;;;;;20.03;47.63;102406.86;1880153;75;20117;-60
2021/10/21 06:51:25;;;;;;;;;;;;;;;20.46;46.82;102392.14;1880226;75;20191;-60
2021/10/21 06:53:53;;;;;;;;;;;;;;;20.88;46.50;102394.72;1880242;76;20395;-60
2021/10/21 06:56:21;;;;;;;;;;;;;;;21.25;45.64;102383.23;1880235;76;20152;-60
2021/10/21 06:58:49;;;;;;;;;;;;;;;21.63;44.82;102382.84;1880287;75;20125;-60
2021/10/21 07:01:17;;;;;;;;;;;;;;;21.84;45.09;102380.66;1880208;76;20116;-60
2021/10/21 07:03:45;;;;;;;;;;;;;;;22.11;43.72;102381.69;1880142;76;20222;-60
2021/10/21 07:06:13;;;;;;;;;;;;;;;22.52;43.57;102374.22;1880231;76;20159;-60
2021/10/21 07:08:40;;;;;;;;;;;;;;;22.94;43.24;102371.51;1880333;76;20109;-60
2021/10/21 07:11:09;;;;;;;;;;;;;;;23.23;42.41;102368.77;1880260;76;20117;-60
2021/10/21 07:13:37;;;;;;;;;;;;;;;23.34;41.01;102368.05;1880229;76;20121;-60
2021/10/21 07:16:06;;;;;;;;;;;;;;;23.49;40.03;102375.91;1880149;76;20143;-60
2021/10/21 07:18:34;;;;;;;;;;;;;;;23.49;39.28;102374.56;1880236;76;20218;-60
2021/10/21 07:21:02;;;;;;;;;;;;;;;23.22;37.89;102369.71;1880228;76;20104;-60
2021/10/21 07:23:30;;;;;;;;;;;;;;;23.12;35.83;102370.33;1880229;76;20124;-59
2021/10/21 07:25:57;;;;;;;;;;;;;;;22.47;34.43;102367.42;1880206;76;20117;-59
2021/10/21 07:28:25;;;;;;;;;;;;;;;22.09;34.06;102358.09;1880173;76;20108;-61
2021/10/21 07:30:59;;;;;;;;;;;;;;;21.71;33.71;102370.70;1880192;76;20147;-60
2021/10/21 07:33:27;;;;;;;;;;;;;;;21.51;33.73;102366.54;1880223;76;20430;-60
2021/10/21 07:35:56;;;;;;;;;;;;;;;21.72;34.10;102362.17;1880302;76;20109;-59
2021/10/21 07:38:25;;;;;;;;;;;;;;;21.81;33.47;102349.55;1880244;76;20410;-59
2021/10/21 07:40:53;;;;;;;;;;;;;;;21.76;32.52;102338.24;1879586;76;20155;-60
2021/10/21 07:43:21;;;;;;;;;;;;;;;21.69;32.85;102354.31;1880175;76;20183;-59
2021/10/21 07:45:49;;;;;;;;;;;;;;;21.78;32.86;102355.09;1880201;76;20109;-60
2021/10/21 07:48:17;;;;;;;;;;;;;;;21.90;32.89;102345.45;1880166;76;20121;-59
2021/10/21 07:50:45;;;;;;;;;;;;;;;21.68;31.27;102324.45;1880167;76;20202;-60
2021/10/21 07:53:13;;;;;;;;;;;;;;;21.48;32.34;102328.34;1880200;76;20104;-60
2021/10/21 07:55:41;;;;;;;;;;;;;;;21.73;32.02;102344.66;1880192;76;20147;-60
2021/10/21 07:58:09;;;;;;;;;;;;;;;21.70;31.52;102333.27;1880451;76;20105;-61
2021/10/21 08:00:36;;;;;;;;;;;;;;;21.68;31.96;102345.91;1880293;76;20124;-60
2021/10/21 08:03:04;;;;;;;;;;;;;;;21.69;32.15;102336.44;1880322;76;20117;-60
2021/10/21 08:05:32;;;;;;;;;;;;;;;21.56;31.66;102324.70;1880299;76;20160;-60
2021/10/21 08:08:02;;;;;;;;;;;;;;;21.54;31.33;102338.68;1880264;76;20148;-60
2021/10/21 08:10:30;;;;;;;;;;;;;;;22.03;31.33;102333.48;1880288;76;20229;-59
2021/10/21 08:12:59;;;;;;;;;;;;;;;22.56;30.71;102333.27;1880312;76;20117;-60
2021/10/21 08:15:27;;;;;;;;;;;;;;;22.53;28.80;102329.44;1880316;76;20383;-60
2021/10/21 08:17:56;;;;;;;;;;;;;;;22.73;30.23;102331.68;1880312;76;20121;-60
2021/10/21 08:20:26;;;;;;;;;;;;;;;23.26;30.04;102340.35;1880263;76;20188;-60
2021/10/21 08:22:54;;;;;;;;;;;;;;;23.81;28.58;102334.34;1880349;76;20151;-60
2021/10/21 08:25:25;;;;;;;;;;;;;;;23.84;27.46;102330.96;1880287;76;20113;-60
2021/10/21 08:27:52;;;;;;;;;;;;;;;23.81;27.61;102327.63;1880308;75;20121;-62
2021/10/21 08:30:24;;;;;;;;;;;;;;;23.88;27.30;102330.27;1880354;76;20109;-62
2021/10/21 08:32:50;;;;;;;;;;;;;;;23.95;27.49;102321.28;1880573;75;20113;-62
2021/10/21 08:35:17;;;;;;;;;;;;;;;23.91;27.15;102329.20;1880234;76;20148;-61
2021/10/21 08:37:45;;;;;;;;;;;;;;;24.05;27.81;102326.38;1880300;76;20156;-61
2021/10/21 08:40:15;;;;;;;;;;;;;;;24.52;26.84;102310.00;1880332;76;20195;-61
2021/10/21 08:42:44;;;;;;;;;;;;;;;24.32;26.04;102315.95;1880295;76;20191;-61
2021/10/21 08:45:13;;;;;;;;;;;;;;;24.21;26.54;102315.38;1879754;76;20144;-61
2021/10/21 08:47:42;;;;;;;;;;;;;;;24.50;27.05;102301.14;1880179;76;20117;-62
2021/10/21 08:50:11;;;;;;;;;;;;;;;24.88;26.31;102300.63;1879671;76;20117;-61
2021/10/21 08:52:40;;;;;;;;;;;;;;;24.80;26.17;102302.56;1880289;76;20147;-61
2021/10/21 08:55:08;;;;;;;;;;;;;;;24.88;26.17;102299.28;1880264;76;20144;-61
2021/10/21 08:57:36;;;;;;;;;;;;;;;25.01;25.85;102296.03;1880285;76;20117;-61
2021/10/21 09:00:05;;;;;;;;;;;;;;;24.78;24.48;102291.05;1880244;76;20109;-62
2021/10/21 09:02:46;;;;;;;;;;;;;;;24.54;25.01;102293.73;1880241;76;20545;-61
2021/10/21 09:05:24;;;;;;;;;;;;;;;24.17;24.27;102275.72;1881249;75;20148;-61
2021/10/21 09:08:00;;;;;;;;;;;;;;;23.88;25.16;102265.24;1880996;75;20121;-61
2021/10/21 09:10:25;;;;;;;;;;;;;;;23.96;26.10;102277.26;1880189;76;20104;-63
2021/10/21 09:12:53;;;;;;;;;;;;;;;24.20;26.12;102264.73;1880258;76;20133;-62
2021/10/21 09:15:23;;;;;;;;;;;;;;;24.32;25.53;102260.77;1880267;76;20105;-62
2021/10/21 09:17:53;;;;;;;;;;;;;;;24.39;25.37;102264.73;1880230;76;20117;-61
2021/10/21 09:20:38;;;;;;;;;;;;;;;24.65;25.47;102246.67;1889484;76;20359;-61
2021/10/21 09:23:10;;;;;;;;;;;;;;;24.73;24.65;102246.08;1853665;76;20121;-62
2021/10/21 09:25:39;;;;;;;;;;;;;;;24.71;25.12;102252.08;1849846;77;20120;-61
2021/10/21 09:28:17;;;;;;;;;;;;;;;24.77;25.43;102247.56;1849965;78;20142;-62
2021/10/21 09:30:46;;;;;;;;;;;;;;;24.63;24.65;102242.73;1849860;78;20121;-61
2021/10/21 09:33:14;;;;;;;;;;;;;;;24.31;24.47;102246.93;1850246;75;20156;-61
2021/10/21 09:35:43;;;;;;;;;;;;;;;24.09;24.03;102247.17;1849779;78;20121;-61
2021/10/21 09:38:18;;;;;;;;;;;;;;;24.30;23.83;102243.88;1851511;75;20153;-61
2021/10/21 09:40:46;;;;;;;;;;;;;;;24.08;23.31;102239.56;1849838;78;20109;-61
2021/10/21 09:43:15;;;;;;;;;;;;;;;23.86;24.29;102242.95;1849958;78;20143;-61
2021/10/21 09:45:44;;;;;;;;;;;;;;;24.27;24.53;102240.45;1849825;76;20442;-61
2021/10/21 09:48:14;;;;;;;;;;;;;;;24.65;24.49;102234.05;1849789;78;20438;-61
2021/10/21 09:50:43;;;;;;;;;;;;;;;24.12;23.36;102222.71;1850895;75;20121;-60
2021/10/21 09:53:22;;;;;;;;;;;;;;;23.79;23.76;102216.15;1849854;78;20105;-61
2021/10/21 09:55:51;;;;;;;;;;;;;;;23.58;23.56;102227.05;1849849;78;20143;-61
2021/10/21 09:58:23;;;;;;;;;;;;;;;23.71;23.52;102215.78;1849854;78;20148;-61
2021/10/21 10:00:51;;;;;;;;;;;;;;;23.76;23.86;102205.56;1849823;78;20446;-62
2021/10/21 10:03:20;;;;;;;;;;;;;;;23.71;23.80;102203.69;1849863;78;20121;-61
2021/10/21 10:05:52;;;;;;;;;;;;;;;23.86;23.88;102209.33;1849807;78;20410;-62
2021/10/21 10:08:21;;;;;;;;;;;;;;;23.86;23.15;102200.41;1850022;76;20121;-61
2021/10/21 10:10:51;;;;;;;;;;;;;;;23.91;23.30;102204.13;1849864;78;20147;-61
2021/10/21 10:13:19;;;;;;;;;;;;;;;23.78;23.15;102190.17;1849825;78;20204;-61
2021/10/21 10:15:48;;;;;;;;;;;;;;;23.48;23.13;102175.28;1849868;78;20117;-61
2021/10/21 10:18:17;;;;;;;;;;;;;;;23.10;23.53;102185.54;1849894;77;20117;-61
2021/10/21 10:20:46;;;;;;;;;;;;;;;23.28;23.81;102181.20;1855173;76;20125;-61
2021/10/21 10:23:14;;;;;;;;;;;;;;;22.96;23.87;102186.09;1858807;77;20190;-62
2021/10/21 10:25:46;;;;;;;;;;;;;;;22.94;24.53;102159.33;1858661;77;20121;-61
2021/10/21 10:28:14;;;;;;;;;;;;;;;22.98;24.83;102177.44;1859010;77;20445;-62
2021/10/21 10:30:50;;;;;;;;;;;;;;;22.69;24.98;102161.02;1858893;77;20382;-61
2021/10/21 10:33:34;;;;;;;;;;;;;;;22.50;25.39;102169.47;1858778;77;20367;-61
2021/10/21 10:36:20;;;;;;;;;;;;;;;22.43;25.36;102156.08;1858701;77;20117;-62
2021/10/21 10:38:49;;;;;;;;;;;;;;;22.31;25.82;102164.94;1858793;76;20159;-61
2021/10/21 10:41:35;;;;;;;;;;;;;;;22.59;26.15;102165.28;1858768;77;20152;-61
2021/10/21 10:44:03;;;;;;;;;;;;;;;22.65;26.34;102163.55;1858793;77;20147;-61
2021/10/21 10:46:51;;;;;;;;;;;;;;;22.73;26.50;102155.81;1858665;77;20151;-61
2021/10/21 10:49:37;;;;;;;;;;;;;;;22.80;25.90;102136.62;1858800;77;20147;-61
2021/10/21 10:52:05;;;;;;;;;;;;;;;22.71;25.53;102140.78;1858758;77;20151;-61
2021/10/21 10:54:47;;;;;;;;;;;;;;;22.61;26.20;102148.62;1858758;77;20152;-61
2021/10/21 10:57:16;;;;;;;;;;;;;;;22.81;26.21;102146.38;1858773;77;20117;-61
2021/10/21 10:59:45;;;;;;;;;;;;;;;22.79;26.41;102138.91;1862941;74;20152;-61
2021/10/21 11:02:32;;;;;;;;;;;;;;;22.53;26.58;102129.47;1858807;77;20567;-61
2021/10/21 11:04:57;;;;;;;;;;;;;;;22.22;26.86;102147.58;1857664;77;20113;-62
2021/10/21 11:07:26;;;;;;;;;;;;;;;22.23;27.25;102114.44;1858677;77;20723;-62
2021/10/21 11:09:56;;;;;;;;;;;;;;;22.15;27.39;102138.21;1858749;77;20176;-61
2021/10/21 11:12:25;;;;;;;;;;;;;;;22.17;27.83;102131.80;1858771;77;20477;-61
2021/10/21 11:14:55;;;;;;;;;;;;;;;22.28;27.90;102120.86;1858782;77;20108;-61
2021/10/21 11:17:42;;;;;;;;;;;;;;;21.95;27.80;102119.44;1858769;77;20112;-61
2021/10/21 11:20:12;;;;;;;;;;;;;;;21.74;28.66;102113.62;1862837;76;20423;-61
2021/10/21 11:22:41;;;;;;;;;;;;;;;21.71;28.00;102116.53;1888445;75;20147;-62
2021/10/21 11:25:10;;;;;;;;;;;;;;;21.25;28.57;102107.33;1896316;76;20124;-61
2021/10/21 11:27:39;;;;;;;;;;;;;;;20.91;29.21;102110.77;1896278;75;20143;-61
2021/10/21 11:30:09;;;;;;;;;;;;;;;20.79;29.38;102109.22;1896188;76;20104;-63
2021/10/21 11:32:38;;;;;;;;;;;;;;;20.63;29.64;102100.39;1896272;76;20187;-62
2021/10/21 11:35:16;;;;;;;;;;;;;;;20.53;30.20;102096.05;1896250;76;20120;-61
2021/10/21 11:37:46;;;;;;;;;;;;;;;20.48;30.47;102079.88;1895859;75;20167;-62
2021/10/21 11:40:17;;;;;;;;;;;;;;;20.09;30.98;102100.00;1896281;76;20104;-61
2021/10/21 11:42:52;;;;;;;;;;;;;;;19.60;32.02;102090.23;1896222;76;20159;-62
2021/10/21 11:45:20;;;;;;;;;;;;;;;19.18;32.35;102088.51;1895779;75;20104;-61
2021/10/21 11:47:49;;;;;;;;;;;;;;;18.70;32.93;102094.10;1896280;76;20116;-61
2021/10/21 11:50:17;;;;;;;;;;;;;;;18.28;33.68;102089.56;1896224;75;20143;-61
2021/10/21 11:52:45;;;;;;;;;;;;;;;17.87;34.42;102087.14;1896269;76;20163;-61
2021/10/21 11:55:20;;;;;;;;;;;;;;;17.63;35.00;102079.83;1896209;76;20108;-61
2021/10/21 11:57:48;;;;;;;;;;;;;;;17.49;35.34;102086.27;1896269;76;20378;-61
2021/10/21 12:00:17;;;;;;;;;;;;;;;17.38;35.54;102085.42;1896333;76;20371;-61
2021/10/21 12:02:45;;;;;;;;;;;;;;;17.33;35.87;102065.66;1896265;76;20394;-61
2021/10/21 12:05:14;;;;;;;;;;;;;;;17.33;36.00;102079.45;1896201;76;20117;-61
2021/10/21 12:07:42;;;;;;;;;;;;;;;17.22;36.35;102077.27;1896219;74;20120;-61
2021/10/21 12:10:10;;;;;;;;;;;;;;;17.21;36.37;102065.36;1896245;76;20113;-61
2021/10/21 12:12:46;;;;;;;;;;;;;;;17.17;36.50;102074.84;1896292;74;20147;-61
2021/10/21 12:15:11;;;;;;;;;;;;;;;17.07;36.88;102075.32;1896626;74;20112;-62
2021/10/21 12:17:39;;;;;;;;;;;;;;;17.04;37.29;102064.80;1896267;74;20125;-61
2021/10/21 12:20:08;;;;;;;;;;;;;;;16.97;37.61;102073.07;1896248;76;20147;-61
2021/10/21 12:22:37;;;;;;;;;;;;;;;16.96;37.91;102063.34;1856379;76;20117;-60
2021/10/21 12:25:10;;;;;;;;;;;;;;;16.98;37.73;102073.45;1850170;77;20125;-61
2021/10/21 12:27:34;;;;;;;;;;;;;;;16.90;37.56;102067.63;1849479;76;20234;-61
2021/10/21 12:30:04;;;;;;;;;;;;;;;16.86;37.57;102049.23;1850229;78;20117;-61
2021/10/21 12:32:32;;;;;;;;;;;;;;;16.85;37.68;102066.95;1850093;78;20147;-62
2021/10/21 12:35:04;;;;;;;;;;;;;;;16.84;37.89;102050.62;1850028;78;20109;-61
2021/10/21 12:37:37;;;;;;;;;;;;;;;16.78;37.94;102057.05;1850059;78;20160;-61
2021/10/21 12:40:24;;;;;;;;;;;;;;;16.74;38.05;102069.20;1849697;78;20117;-61
2021/10/21 12:42:48;;;;;;;;;;;;;;;16.71;38.21;102055.58;1850449;74;20429;-62
2021/10/21 12:45:23;;;;;;;;;;;;;;;16.66;38.14;102072.67;1850309;78;20164;-62
2021/10/21 12:47:51;;;;;;;;;;;;;;;16.58;38.35;102067.66;1850280;78;20117;-61
2021/10/21 12:50:21;;;;;;;;;;;;;;;16.52;38.38;102075.44;1850189;78;20125;-61
2021/10/21 12:52:50;;;;;;;;;;;;;;;16.44;38.57;102061.63;1850720;74;20117;-61
2021/10/21 12:55:19;;;;;;;;;;;;;;;16.45;39.02;102064.70;1850391;76;20117;-61